Helen D. Coppedge — WCA5274 — position and weather

sailwx.info

Track history (hours):
 
Tides and Currents Weather Stations Pressure Air Temp Water Temp Dewpoint Dewpoint Depression Visibility Wind Speed Wind Dir Waves Ship Positions

Helen D. Coppedge

Owner: MORAN TOWING CORPORATION, Philadelphia, PA. More information available from US FCC via Universal Licensing System and Coast Guard Vessel Documentation Center.

Last reported at 2016-Sep-28 19:32 UTC. Time now 2016-Sep-29 15:20 UTC.
Position N 40°54' W 073°55'.

Length 30 m; draft 4 m.

Type: Tug. MMSI: 367177370.

Date/timePositionNaut miles runAvg speedWind from/ knotsBaromVisibWave heightAir tempDewpointWater temp
2016-Sep-28 19:32N 40°54' W 073°55'12 4.1
2016-Sep-28 16:33N 40°43' W 074°02'3 3.3
2016-Sep-28 15:33N 40°40' W 074°02'0 0.0
2016-Sep-28 12:33N 40°40' W 074°02'0 0.0
2016-Sep-28 08:33N 40°40' W 074°02'9 0.7
2016-Sep-27 19:33N 40°47' W 073°55'10 1.9
2016-Sep-27 14:33N 40°39' W 074°02'5 5.2
2016-Sep-27 13:33N 40°44' W 074°01'12 0.2
2016-Sep-25 11:32N 40°56' W 073°55'1010.3
2016-Sep-25 10:33N 40°47' W 073°60'7 7.2
2016-Sep-25 09:33N 40°40' W 074°02'5 2.3
2016-Sep-25 07:33N 40°44' W 074°01'4 0.1
2016-Sep-23 06:33N 40°48' W 073°59'9 4.4
2016-Sep-23 04:34N 40°40' W 074°02'5 4.7
2016-Sep-23 03:33N 40°43' W 073°58'  
2016-Sep-20 17:34N 40°39' W 074°02'0 0.0
2016-Sep-20 14:34N 40°39' W 074°02'2 1.7
2016-Sep-20 13:34N 40°40' W 073°60'2 0.6
2016-Sep-20 10:34N 40°39' W 074°02'3 1.5
2016-Sep-20 08:33N 40°42' W 074°02'9 9.2
2016-Sep-20 07:33N 40°51' W 073°57'  
Track history (hours):
 
Tides and Currents Weather Stations Pressure Air Temp Water Temp Dewpoint Dewpoint Depression Visibility Wind Speed Wind Dir Waves Ship Positions

Helen D. Coppedge

Owner: MORAN TOWING CORPORATION, Philadelphia, PA. More information available from US FCC via Universal Licensing System and Coast Guard Vessel Documentation Center.

Last reported at 2016-Sep-28 19:32 UTC. Time now 2016-Sep-29 15:21 UTC.
Position N 40°54' W 073°55'.

Length 30 m; draft 4 m.

Type: Tug. MMSI: 367177370.

Date/timePositionNaut miles runAvg speedWind from/ knotsBaromVisibWave heightAir tempDewpointWater temp
2016-Sep-28 19:32N 40°54' W 073°55'12 4.1
2016-Sep-28 16:33N 40°43' W 074°02'3 3.3
2016-Sep-28 15:33N 40°40' W 074°02'0 0.0
2016-Sep-28 12:33N 40°40' W 074°02'0 0.0
2016-Sep-28 08:33N 40°40' W 074°02'9 0.7
2016-Sep-27 19:33N 40°47' W 073°55'10 1.9
2016-Sep-27 14:33N 40°39' W 074°02'5 5.2
2016-Sep-27 13:33N 40°44' W 074°01'12 0.2
2016-Sep-25 11:32N 40°56' W 073°55'1010.3
2016-Sep-25 10:33N 40°47' W 073°60'7 7.2
2016-Sep-25 09:33N 40°40' W 074°02'5 2.3
2016-Sep-25 07:33N 40°44' W 074°01'4 0.1
2016-Sep-23 06:33N 40°48' W 073°59'9 4.4
2016-Sep-23 04:34N 40°40' W 074°02'5 4.7
2016-Sep-23 03:33N 40°43' W 073°58'  
2016-Sep-20 17:34N 40°39' W 074°02'0 0.0
2016-Sep-20 14:34N 40°39' W 074°02'2 1.7
2016-Sep-20 13:34N 40°40' W 073°60'2 0.6
2016-Sep-20 10:34N 40°39' W 074°02'3 1.5
2016-Sep-20 08:33N 40°42' W 074°02'9 9.2
2016-Sep-20 07:33N 40°51' W 073°57'  

Dump ship's entire track history